sensor_id;sensor_type;location;lat;lon;timestamp;P1;durP1;ratioP1;P2;durP2;ratioP2
24961;SDS011;12992;50.884;13.668;2023-02-11T00:00:47;29.63;;;15.32;;
24961;SDS011;12992;50.884;13.668;2023-02-11T00:03:12;32.20;;;15.27;;
24961;SDS011;12992;50.884;13.668;2023-02-11T00:05:37;31.20;;;14.57;;
24961;SDS011;12992;50.884;13.668;2023-02-11T00:08:03;30.77;;;15.40;;
24961;SDS011;12992;50.884;13.668;2023-02-11T00:10:28;29.48;;;14.10;;
24961;SDS011;12992;50.884;13.668;2023-02-11T00:12:53;28.00;;;13.82;;
24961;SDS011;12992;50.884;13.668;2023-02-11T00:15:19;29.13;;;14.43;;
24961;SDS011;12992;50.884;13.668;2023-02-11T00:17:45;27.65;;;13.77;;
24961;SDS011;12992;50.884;13.668;2023-02-11T00:20:10;33.13;;;14.93;;
24961;SDS011;12992;50.884;13.668;2023-02-11T00:22:35;33.90;;;15.82;;
24961;SDS011;12992;50.884;13.668;2023-02-11T00:25:01;35.80;;;15.00;;
24961;SDS011;12992;50.884;13.668;2023-02-11T00:27:26;30.88;;;14.95;;
24961;SDS011;12992;50.884;13.668;2023-02-11T00:29:52;30.08;;;14.50;;
24961;SDS011;12992;50.884;13.668;2023-02-11T00:32:17;30.65;;;15.68;;
24961;SDS011;12992;50.884;13.668;2023-02-11T00:34:42;32.13;;;15.05;;
24961;SDS011;12992;50.884;13.668;2023-02-11T00:37:08;32.40;;;14.95;;
24961;SDS011;12992;50.884;13.668;2023-02-11T00:39:33;34.28;;;15.02;;
24961;SDS011;12992;50.884;13.668;2023-02-11T00:41:59;29.67;;;14.48;;
24961;SDS011;12992;50.884;13.668;2023-02-11T00:44:24;27.25;;;14.85;;
24961;SDS011;12992;50.884;13.668;2023-02-11T00:46:49;28.63;;;14.15;;
24961;SDS011;12992;50.884;13.668;2023-02-11T00:49:14;24.85;;;13.90;;
24961;SDS011;12992;50.884;13.668;2023-02-11T00:51:40;31.02;;;14.55;;
24961;SDS011;12992;50.884;13.668;2023-02-11T00:54:05;26.02;;;14.50;;
24961;SDS011;12992;50.884;13.668;2023-02-11T00:56:31;30.27;;;14.43;;
24961;SDS011;12992;50.884;13.668;2023-02-11T00:58:56;28.33;;;14.88;;
24961;SDS011;12992;50.884;13.668;2023-02-11T01:01:22;29.73;;;14.95;;
24961;SDS011;12992;50.884;13.668;2023-02-11T01:03:47;31.33;;;15.63;;
24961;SDS011;12992;50.884;13.668;2023-02-11T01:06:13;26.70;;;14.65;;
24961;SDS011;12992;50.884;13.668;2023-02-11T01:08:38;28.33;;;15.10;;
24961;SDS011;12992;50.884;13.668;2023-02-11T01:11:05;35.03;;;15.45;;
24961;SDS011;12992;50.884;13.668;2023-02-11T01:13:32;31.75;;;15.10;;
24961;SDS011;12992;50.884;13.668;2023-02-11T01:16:00;28.88;;;15.40;;
24961;SDS011;12992;50.884;13.668;2023-02-11T01:18:25;29.85;;;14.57;;
24961;SDS011;12992;50.884;13.668;2023-02-11T01:20:52;28.08;;;14.75;;
24961;SDS011;12992;50.884;13.668;2023-02-11T01:23:18;27.58;;;13.82;;
24961;SDS011;12992;50.884;13.668;2023-02-11T01:25:43;30.67;;;15.45;;
24961;SDS011;12992;50.884;13.668;2023-02-11T01:28:14;32.05;;;15.57;;
24961;SDS011;12992;50.884;13.668;2023-02-11T01:30:59;32.00;;;15.30;;
24961;SDS011;12992;50.884;13.668;2023-02-11T01:33:25;32.67;;;15.82;;
24961;SDS011;12992;50.884;13.668;2023-02-11T01:35:51;30.70;;;15.88;;
24961;SDS011;12992;50.884;13.668;2023-02-11T01:38:17;33.67;;;16.80;;
24961;SDS011;12992;50.884;13.668;2023-02-11T01:41:05;31.80;;;16.08;;
24961;SDS011;12992;50.884;13.668;2023-02-11T01:43:34;30.23;;;15.77;;
24961;SDS011;12992;50.884;13.668;2023-02-11T01:46:03;29.42;;;14.10;;
24961;SDS011;12992;50.884;13.668;2023-02-11T01:49:09;28.92;;;15.50;;
24961;SDS011;12992;50.884;13.668;2023-02-11T01:51:39;28.52;;;15.73;;
24961;SDS011;12992;50.884;13.668;2023-02-11T01:54:09;29.08;;;15.52;;
24961;SDS011;12992;50.884;13.668;2023-02-11T01:56:57;28.15;;;15.48;;
24961;SDS011;12992;50.884;13.668;2023-02-11T02:02:23;34.92;;;16.20;;
24961;SDS011;12992;50.884;13.668;2023-02-11T02:08:04;30.73;;;15.85;;
24961;SDS011;12992;50.884;13.668;2023-02-11T02:10:46;32.92;;;15.85;;
24961;SDS011;12992;50.884;13.668;2023-02-11T02:13:18;29.10;;;15.40;;
24961;SDS011;12992;50.884;13.668;2023-02-11T02:15:57;31.67;;;15.70;;
24961;SDS011;12992;50.884;13.668;2023-02-11T02:35:47;33.83;;;16.08;;
24961;SDS011;12992;50.884;13.668;2023-02-11T02:38:37;30.92;;;14.77;;
24961;SDS011;12992;50.884;13.668;2023-02-11T02:41:10;31.20;;;16.23;;
24961;SDS011;12992;50.884;13.668;2023-02-11T02:43:44;28.27;;;15.45;;
24961;SDS011;12992;50.884;13.668;2023-02-11T02:46:16;34.75;;;16.33;;
24961;SDS011;12992;50.884;13.668;2023-02-11T02:48:44;30.88;;;15.80;;
24961;SDS011;12992;50.884;13.668;2023-02-11T02:51:14;30.85;;;16.38;;
24961;SDS011;12992;50.884;13.668;2023-02-11T02:53:55;29.92;;;15.10;;
24961;SDS011;12992;50.884;13.668;2023-02-11T02:56:35;28.15;;;16.08;;
24961;SDS011;12992;50.884;13.668;2023-02-11T03:02:08;31.00;;;15.20;;
24961;SDS011;12992;50.884;13.668;2023-02-11T03:04:51;29.67;;;15.57;;
24961;SDS011;12992;50.884;13.668;2023-02-11T03:07:40;31.23;;;15.15;;
24961;SDS011;12992;50.884;13.668;2023-02-11T03:10:22;29.02;;;14.70;;
24961;SDS011;12992;50.884;13.668;2023-02-11T03:12:51;26.00;;;15.18;;
24961;SDS011;12992;50.884;13.668;2023-02-11T03:15:19;29.70;;;16.13;;
24961;SDS011;12992;50.884;13.668;2023-02-11T03:17:47;32.17;;;16.08;;
24961;SDS011;12992;50.884;13.668;2023-02-11T03:20:16;31.30;;;15.00;;
24961;SDS011;12992;50.884;13.668;2023-02-11T03:23:04;26.85;;;15.07;;
24961;SDS011;12992;50.884;13.668;2023-02-11T03:25:44;28.10;;;14.80;;
24961;SDS011;12992;50.884;13.668;2023-02-11T03:31:03;27.00;;;14.90;;
24961;SDS011;12992;50.884;13.668;2023-02-11T03:34:09;27.90;;;14.98;;
24961;SDS011;12992;50.884;13.668;2023-02-11T03:37:07;28.00;;;14.30;;
24961;SDS011;12992;50.884;13.668;2023-02-11T03:39:38;30.02;;;15.68;;
24961;SDS011;12992;50.884;13.668;2023-02-11T03:42:10;28.92;;;15.68;;
24961;SDS011;12992;50.884;13.668;2023-02-11T03:44:44;28.55;;;15.52;;
24961;SDS011;12992;50.884;13.668;2023-02-11T03:47:14;29.95;;;15.40;;
24961;SDS011;12992;50.884;13.668;2023-02-11T03:49:43;26.88;;;15.93;;
24961;SDS011;12992;50.884;13.668;2023-02-11T03:52:11;31.13;;;14.65;;
24961;SDS011;12992;50.884;13.668;2023-02-11T03:54:39;31.55;;;16.10;;
24961;SDS011;12992;50.884;13.668;2023-02-11T03:57:07;33.05;;;15.30;;
24961;SDS011;12992;50.884;13.668;2023-02-11T03:59:47;32.47;;;15.77;;
24961;SDS011;12992;50.884;13.668;2023-02-11T04:02:17;30.58;;;15.13;;
24961;SDS011;12992;50.884;13.668;2023-02-11T04:04:43;30.13;;;15.57;;
24961;SDS011;12992;50.884;13.668;2023-02-11T04:07:10;31.15;;;15.48;;
24961;SDS011;12992;50.884;13.668;2023-02-11T04:09:36;29.23;;;14.77;;
24961;SDS011;12992;50.884;13.668;2023-02-11T04:12:01;29.90;;;14.95;;
24961;SDS011;12992;50.884;13.668;2023-02-11T04:14:27;33.47;;;16.33;;
24961;SDS011;12992;50.884;13.668;2023-02-11T04:16:52;28.35;;;15.63;;
24961;SDS011;12992;50.884;13.668;2023-02-11T04:19:17;32.45;;;16.60;;
24961;SDS011;12992;50.884;13.668;2023-02-11T04:21:42;31.75;;;15.88;;
24961;SDS011;12992;50.884;13.668;2023-02-11T04:24:08;26.55;;;15.70;;
24961;SDS011;12992;50.884;13.668;2023-02-11T04:26:33;29.40;;;14.93;;
24961;SDS011;12992;50.884;13.668;2023-02-11T04:28:58;30.33;;;15.88;;
24961;SDS011;12992;50.884;13.668;2023-02-11T04:31:24;34.05;;;16.55;;
24961;SDS011;12992;50.884;13.668;2023-02-11T04:33:49;31.30;;;15.25;;
24961;SDS011;12992;50.884;13.668;2023-02-11T04:36:14;35.72;;;16.58;;
24961;SDS011;12992;50.884;13.668;2023-02-11T04:38:40;32.17;;;16.58;;
24961;SDS011;12992;50.884;13.668;2023-02-11T04:41:05;31.77;;;15.95;;
24961;SDS011;12992;50.884;13.668;2023-02-11T04:43:30;26.35;;;15.40;;
24961;SDS011;12992;50.884;13.668;2023-02-11T04:45:56;28.23;;;15.90;;
24961;SDS011;12992;50.884;13.668;2023-02-11T04:48:22;28.42;;;16.20;;
24961;SDS011;12992;50.884;13.668;2023-02-11T04:50:48;31.27;;;15.88;;
24961;SDS011;12992;50.884;13.668;2023-02-11T04:53:13;28.08;;;14.63;;
24961;SDS011;12992;50.884;13.668;2023-02-11T04:55:38;26.63;;;13.90;;
24961;SDS011;12992;50.884;13.668;2023-02-11T04:58:04;28.92;;;14.85;;
24961;SDS011;12992;50.884;13.668;2023-02-11T05:00:29;29.35;;;15.20;;
24961;SDS011;12992;50.884;13.668;2023-02-11T05:02:54;27.58;;;15.20;;
24961;SDS011;12992;50.884;13.668;2023-02-11T05:05:20;29.70;;;15.13;;
24961;SDS011;12992;50.884;13.668;2023-02-11T05:07:45;29.55;;;16.30;;
24961;SDS011;12992;50.884;13.668;2023-02-11T05:10:10;33.40;;;16.27;;
24961;SDS011;12992;50.884;13.668;2023-02-11T05:12:36;31.40;;;16.70;;
24961;SDS011;12992;50.884;13.668;2023-02-11T05:15:01;30.42;;;17.15;;
24961;SDS011;12992;50.884;13.668;2023-02-11T05:17:26;32.67;;;16.30;;
24961;SDS011;12992;50.884;13.668;2023-02-11T05:19:52;34.45;;;17.13;;
24961;SDS011;12992;50.884;13.668;2023-02-11T05:22:17;33.58;;;17.88;;
24961;SDS011;12992;50.884;13.668;2023-02-11T05:24:42;35.47;;;17.88;;
24961;SDS011;12992;50.884;13.668;2023-02-11T05:27:07;38.72;;;17.63;;
24961;SDS011;12992;50.884;13.668;2023-02-11T05:29:33;37.88;;;18.35;;
24961;SDS011;12992;50.884;13.668;2023-02-11T05:31:58;37.92;;;18.50;;
24961;SDS011;12992;50.884;13.668;2023-02-11T05:34:24;37.40;;;19.80;;
24961;SDS011;12992;50.884;13.668;2023-02-11T05:36:49;44.60;;;20.48;;
24961;SDS011;12992;50.884;13.668;2023-02-11T05:39:14;39.30;;;19.80;;
24961;SDS011;12992;50.884;13.668;2023-02-11T05:41:40;41.75;;;20.90;;
24961;SDS011;12992;50.884;13.668;2023-02-11T05:44:05;41.33;;;20.90;;
24961;SDS011;12992;50.884;13.668;2023-02-11T05:46:30;43.92;;;22.10;;
24961;SDS011;12992;50.884;13.668;2023-02-11T05:48:56;44.67;;;21.58;;
24961;SDS011;12992;50.884;13.668;2023-02-11T05:51:21;46.92;;;20.88;;
24961;SDS011;12992;50.884;13.668;2023-02-11T05:53:49;46.00;;;22.08;;
24961;SDS011;12992;50.884;13.668;2023-02-11T05:56:14;47.15;;;21.55;;
24961;SDS011;12992;50.884;13.668;2023-02-11T05:58:39;47.85;;;23.05;;
24961;SDS011;12992;50.884;13.668;2023-02-11T06:01:05;44.70;;;21.88;;
24961;SDS011;12992;50.884;13.668;2023-02-11T06:03:30;43.05;;;20.48;;
24961;SDS011;12992;50.884;13.668;2023-02-11T06:05:56;43.22;;;21.83;;
24961;SDS011;12992;50.884;13.668;2023-02-11T06:08:21;45.83;;;21.98;;
24961;SDS011;12992;50.884;13.668;2023-02-11T06:10:46;43.25;;;20.55;;
24961;SDS011;12992;50.884;13.668;2023-02-11T06:13:12;46.67;;;21.95;;
24961;SDS011;12992;50.884;13.668;2023-02-11T06:15:37;47.67;;;23.02;;
24961;SDS011;12992;50.884;13.668;2023-02-11T06:18:03;45.20;;;22.70;;
24961;SDS011;12992;50.884;13.668;2023-02-11T06:20:28;43.75;;;22.70;;
24961;SDS011;12992;50.884;13.668;2023-02-11T06:22:54;44.35;;;22.35;;
24961;SDS011;12992;50.884;13.668;2023-02-11T06:25:19;51.50;;;23.52;;
24961;SDS011;12992;50.884;13.668;2023-02-11T06:27:44;47.97;;;23.13;;
24961;SDS011;12992;50.884;13.668;2023-02-11T06:30:10;44.22;;;22.85;;
24961;SDS011;12992;50.884;13.668;2023-02-11T06:32:35;46.58;;;22.05;;
24961;SDS011;12992;50.884;13.668;2023-02-11T06:35:01;46.33;;;22.52;;
24961;SDS011;12992;50.884;13.668;2023-02-11T06:37:26;44.95;;;21.98;;
24961;SDS011;12992;50.884;13.668;2023-02-11T06:39:51;43.70;;;22.15;;
24961;SDS011;12992;50.884;13.668;2023-02-11T06:42:16;45.58;;;21.60;;
24961;SDS011;12992;50.884;13.668;2023-02-11T06:44:42;46.53;;;22.33;;
24961;SDS011;12992;50.884;13.668;2023-02-11T06:47:08;44.05;;;22.60;;
24961;SDS011;12992;50.884;13.668;2023-02-11T06:49:34;48.83;;;22.52;;
24961;SDS011;12992;50.884;13.668;2023-02-11T06:51:59;55.28;;;22.92;;
24961;SDS011;12992;50.884;13.668;2023-02-11T06:54:24;46.08;;;22.70;;
24961;SDS011;12992;50.884;13.668;2023-02-11T06:56:50;47.20;;;22.80;;
24961;SDS011;12992;50.884;13.668;2023-02-11T06:59:15;53.53;;;24.35;;
24961;SDS011;12992;50.884;13.668;2023-02-11T07:01:42;45.35;;;22.40;;
24961;SDS011;12992;50.884;13.668;2023-02-11T07:04:08;44.95;;;22.17;;
24961;SDS011;12992;50.884;13.668;2023-02-11T07:06:33;47.65;;;22.95;;
24961;SDS011;12992;50.884;13.668;2023-02-11T07:09:01;42.17;;;23.13;;
24961;SDS011;12992;50.884;13.668;2023-02-11T07:11:28;46.47;;;23.80;;
24961;SDS011;12992;50.884;13.668;2023-02-11T07:13:54;49.13;;;22.70;;
24961;SDS011;12992;50.884;13.668;2023-02-11T07:16:23;48.83;;;24.10;;
24961;SDS011;12992;50.884;13.668;2023-02-11T07:18:49;46.85;;;23.40;;
24961;SDS011;12992;50.884;13.668;2023-02-11T07:21:16;52.85;;;22.98;;
24961;SDS011;12992;50.884;13.668;2023-02-11T07:23:43;54.45;;;23.83;;
24961;SDS011;12992;50.884;13.668;2023-02-11T07:26:10;49.50;;;24.02;;
24961;SDS011;12992;50.884;13.668;2023-02-11T07:28:37;49.75;;;23.92;;
24961;SDS011;12992;50.884;13.668;2023-02-11T07:33:39;46.53;;;23.20;;
24961;SDS011;12992;50.884;13.668;2023-02-11T07:36:05;48.13;;;23.52;;
24961;SDS011;12992;50.884;13.668;2023-02-11T07:38:32;50.33;;;24.05;;
24961;SDS011;12992;50.884;13.668;2023-02-11T07:40:59;49.15;;;23.42;;
24961;SDS011;12992;50.884;13.668;2023-02-11T07:43:25;51.55;;;23.02;;
24961;SDS011;12992;50.884;13.668;2023-02-11T07:45:51;48.17;;;23.33;;
24961;SDS011;12992;50.884;13.668;2023-02-11T07:48:16;52.50;;;23.42;;
24961;SDS011;12992;50.884;13.668;2023-02-11T07:50:42;54.33;;;24.05;;
24961;SDS011;12992;50.884;13.668;2023-02-11T07:53:07;50.72;;;24.10;;
24961;SDS011;12992;50.884;13.668;2023-02-11T07:55:32;55.28;;;23.20;;
24961;SDS011;12992;50.884;13.668;2023-02-11T07:57:58;46.30;;;23.83;;
24961;SDS011;12992;50.884;13.668;2023-02-11T08:00:23;46.22;;;23.05;;
24961;SDS011;12992;50.884;13.668;2023-02-11T08:02:48;51.05;;;23.75;;
24961;SDS011;12992;50.884;13.668;2023-02-11T08:05:14;47.05;;;23.42;;
24961;SDS011;12992;50.884;13.668;2023-02-11T08:07:39;52.40;;;23.45;;
24961;SDS011;12992;50.884;13.668;2023-02-11T08:10:04;50.83;;;23.00;;
24961;SDS011;12992;50.884;13.668;2023-02-11T08:12:30;50.80;;;24.35;;
24961;SDS011;12992;50.884;13.668;2023-02-11T08:14:55;47.15;;;23.45;;
24961;SDS011;12992;50.884;13.668;2023-02-11T08:17:21;48.58;;;22.95;;
24961;SDS011;12992;50.884;13.668;2023-02-11T08:19:46;46.63;;;22.55;;
24961;SDS011;12992;50.884;13.668;2023-02-11T08:22:11;48.42;;;22.70;;
24961;SDS011;12992;50.884;13.668;2023-02-11T08:24:37;48.13;;;22.42;;
24961;SDS011;12992;50.884;13.668;2023-02-11T08:27:02;44.30;;;22.02;;
24961;SDS011;12992;50.884;13.668;2023-02-11T08:29:27;47.75;;;22.35;;
24961;SDS011;12992;50.884;13.668;2023-02-11T08:31:53;42.97;;;22.35;;
24961;SDS011;12992;50.884;13.668;2023-02-11T08:34:18;46.65;;;21.75;;
24961;SDS011;12992;50.884;13.668;2023-02-11T08:36:44;47.25;;;22.80;;
24961;SDS011;12992;50.884;13.668;2023-02-11T08:39:15;43.60;;;22.55;;
24961;SDS011;12992;50.884;13.668;2023-02-11T08:41:43;40.42;;;20.85;;
24961;SDS011;12992;50.884;13.668;2023-02-11T08:44:09;44.08;;;21.17;;
24961;SDS011;12992;50.884;13.668;2023-02-11T08:46:34;44.58;;;21.98;;
24961;SDS011;12992;50.884;13.668;2023-02-11T08:49:00;47.60;;;21.58;;
24961;SDS011;12992;50.884;13.668;2023-02-11T08:51:26;45.92;;;21.75;;
24961;SDS011;12992;50.884;13.668;2023-02-11T08:53:54;44.38;;;21.30;;
24961;SDS011;12992;50.884;13.668;2023-02-11T08:56:20;43.53;;;22.38;;
24961;SDS011;12992;50.884;13.668;2023-02-11T08:58:50;41.47;;;21.40;;
24961;SDS011;12992;50.884;13.668;2023-02-11T09:01:17;47.28;;;22.25;;
24961;SDS011;12992;50.884;13.668;2023-02-11T09:03:45;45.88;;;21.55;;
24961;SDS011;12992;50.884;13.668;2023-02-11T09:06:11;43.58;;;21.85;;
24961;SDS011;12992;50.884;13.668;2023-02-11T09:08:38;43.25;;;21.35;;
24961;SDS011;12992;50.884;13.668;2023-02-11T09:11:05;42.13;;;21.60;;
24961;SDS011;12992;50.884;13.668;2023-02-11T09:13:31;45.53;;;22.17;;
24961;SDS011;12992;50.884;13.668;2023-02-11T09:15:57;43.13;;;22.08;;
24961;SDS011;12992;50.884;13.668;2023-02-11T09:18:24;40.38;;;21.30;;
24961;SDS011;12992;50.884;13.668;2023-02-11T09:20:49;43.05;;;22.00;;
24961;SDS011;12992;50.884;13.668;2023-02-11T09:23:15;44.30;;;21.73;;
24961;SDS011;12992;50.884;13.668;2023-02-11T09:25:40;39.33;;;20.65;;
24961;SDS011;12992;50.884;13.668;2023-02-11T09:28:08;42.45;;;21.83;;
24961;SDS011;12992;50.884;13.668;2023-02-11T09:30:35;44.75;;;21.70;;
24961;SDS011;12992;50.884;13.668;2023-02-11T09:33:01;43.55;;;21.23;;
24961;SDS011;12992;50.884;13.668;2023-02-11T09:35:27;43.33;;;20.83;;
24961;SDS011;12992;50.884;13.668;2023-02-11T09:37:53;43.53;;;22.00;;
24961;SDS011;12992;50.884;13.668;2023-02-11T09:40:18;43.03;;;22.02;;
24961;SDS011;12992;50.884;13.668;2023-02-11T09:42:45;42.40;;;22.30;;
24961;SDS011;12992;50.884;13.668;2023-02-11T09:45:18;41.63;;;21.05;;
24961;SDS011;12992;50.884;13.668;2023-02-11T09:48:00;45.55;;;21.83;;
24961;SDS011;12992;50.884;13.668;2023-02-11T09:50:33;44.35;;;21.60;;
24961;SDS011;12992;50.884;13.668;2023-02-11T09:53:04;41.30;;;20.83;;
24961;SDS011;12992;50.884;13.668;2023-02-11T09:55:41;43.15;;;22.33;;
24961;SDS011;12992;50.884;13.668;2023-02-11T09:58:13;45.17;;;21.23;;
24961;SDS011;12992;50.884;13.668;2023-02-11T10:03:34;43.35;;;21.20;;
24961;SDS011;12992;50.884;13.668;2023-02-11T10:09:19;45.83;;;22.52;;
24961;SDS011;12992;50.884;13.668;2023-02-11T10:15:06;40.90;;;21.38;;
24961;SDS011;12992;50.884;13.668;2023-02-11T10:17:44;41.15;;;21.50;;
24961;SDS011;12992;50.884;13.668;2023-02-11T10:20:24;41.58;;;21.15;;
24961;SDS011;12992;50.884;13.668;2023-02-11T10:22:58;40.45;;;21.73;;
24961;SDS011;12992;50.884;13.668;2023-02-11T10:25:32;45.83;;;22.42;;
24961;SDS011;12992;50.884;13.668;2023-02-11T10:28:01;49.20;;;22.80;;
24961;SDS011;12992;50.884;13.668;2023-02-11T10:30:37;38.72;;;21.08;;
24961;SDS011;12992;50.884;13.668;2023-02-11T10:33:12;44.35;;;22.95;;
24961;SDS011;12992;50.884;13.668;2023-02-11T10:35:44;44.17;;;22.77;;
24961;SDS011;12992;50.884;13.668;2023-02-11T10:38:09;43.92;;;22.55;;
24961;SDS011;12992;50.884;13.668;2023-02-11T10:40:35;42.83;;;22.42;;
24961;SDS011;12992;50.884;13.668;2023-02-11T10:43:05;43.13;;;21.65;;
24961;SDS011;12992;50.884;13.668;2023-02-11T10:48:34;41.05;;;22.10;;
24961;SDS011;12992;50.884;13.668;2023-02-11T10:53:37;44.25;;;22.27;;
24961;SDS011;12992;50.884;13.668;2023-02-11T10:56:03;42.25;;;21.30;;
24961;SDS011;12992;50.884;13.668;2023-02-11T10:58:30;43.58;;;21.63;;
24961;SDS011;12992;50.884;13.668;2023-02-11T11:01:00;40.83;;;22.75;;
24961;SDS011;12992;50.884;13.668;2023-02-11T11:03:28;44.45;;;21.83;;
24961;SDS011;12992;50.884;13.668;2023-02-11T11:05:59;41.70;;;21.60;;
24961;SDS011;12992;50.884;13.668;2023-02-11T11:08:46;44.45;;;21.90;;
24961;SDS011;12992;50.884;13.668;2023-02-11T11:11:16;42.47;;;21.30;;
24961;SDS011;12992;50.884;13.668;2023-02-11T11:18:48;40.63;;;21.58;;
24961;SDS011;12992;50.884;13.668;2023-02-11T11:21:17;41.42;;;22.00;;
24961;SDS011;12992;50.884;13.668;2023-02-11T11:26:17;41.38;;;20.55;;
24961;SDS011;12992;50.884;13.668;2023-02-11T11:28:50;39.95;;;21.05;;
24961;SDS011;12992;50.884;13.668;2023-02-11T11:31:23;41.75;;;20.98;;
24961;SDS011;12992;50.884;13.668;2023-02-11T11:33:53;42.72;;;22.45;;
24961;SDS011;12992;50.884;13.668;2023-02-11T11:36:22;46.88;;;22.30;;
24961;SDS011;12992;50.884;13.668;2023-02-11T11:38:56;42.58;;;21.23;;
24961;SDS011;12992;50.884;13.668;2023-02-11T11:41:28;37.15;;;20.10;;
24961;SDS011;12992;50.884;13.668;2023-02-11T11:46:32;36.73;;;19.50;;
24961;SDS011;12992;50.884;13.668;2023-02-11T11:49:06;40.97;;;20.98;;
24961;SDS011;12992;50.884;13.668;2023-02-11T11:51:42;44.28;;;20.77;;
24961;SDS011;12992;50.884;13.668;2023-02-11T11:54:15;39.70;;;19.77;;
24961;SDS011;12992;50.884;13.668;2023-02-11T11:56:46;38.40;;;20.35;;
24961;SDS011;12992;50.884;13.668;2023-02-11T11:59:17;38.88;;;20.45;;
24961;SDS011;12992;50.884;13.668;2023-02-11T12:01:47;44.88;;;20.02;;
24961;SDS011;12992;50.884;13.668;2023-02-11T12:07:01;39.88;;;19.40;;
24961;SDS011;12992;50.884;13.668;2023-02-11T12:12:23;37.75;;;18.95;;
24961;SDS011;12992;50.884;13.668;2023-02-11T12:18:29;39.53;;;19.67;;
24961;SDS011;12992;50.884;13.668;2023-02-11T12:24:05;37.47;;;19.58;;
24961;SDS011;12992;50.884;13.668;2023-02-11T12:26:56;38.47;;;19.50;;
24961;SDS011;12992;50.884;13.668;2023-02-11T12:32:44;40.22;;;19.98;;
24961;SDS011;12992;50.884;13.668;2023-02-11T12:35:41;40.58;;;19.80;;
24961;SDS011;12992;50.884;13.668;2023-02-11T12:53:29;44.47;;;21.75;;
24961;SDS011;12992;50.884;13.668;2023-02-11T12:59:02;40.92;;;20.55;;
24961;SDS011;12992;50.884;13.668;2023-02-11T13:01:33;44.75;;;20.77;;
24961;SDS011;12992;50.884;13.668;2023-02-11T13:04:05;44.03;;;22.10;;
24961;SDS011;12992;50.884;13.668;2023-02-11T13:06:41;40.25;;;22.05;;
24961;SDS011;12992;50.884;13.668;2023-02-11T13:09:12;42.97;;;21.88;;
24961;SDS011;12992;50.884;13.668;2023-02-11T13:11:46;47.90;;;22.40;;
24961;SDS011;12992;50.884;13.668;2023-02-11T13:16:56;43.45;;;22.15;;
24961;SDS011;12992;50.884;13.668;2023-02-11T13:19:38;43.72;;;22.55;;
24961;SDS011;12992;50.884;13.668;2023-02-11T13:22:19;41.67;;;21.30;;
24961;SDS011;12992;50.884;13.668;2023-02-11T13:25:05;39.72;;;20.77;;
24961;SDS011;12992;50.884;13.668;2023-02-11T13:30:34;46.80;;;22.52;;
24961;SDS011;12992;50.884;13.668;2023-02-11T13:33:20;44.40;;;22.65;;
24961;SDS011;12992;50.884;13.668;2023-02-11T13:38:26;47.20;;;21.73;;
24961;SDS011;12992;50.884;13.668;2023-02-11T13:40:57;44.78;;;22.33;;
24961;SDS011;12992;50.884;13.668;2023-02-11T13:43:26;45.03;;;22.00;;
24961;SDS011;12992;50.884;13.668;2023-02-11T13:45:57;42.72;;;21.52;;
24961;SDS011;12992;50.884;13.668;2023-02-11T13:48:26;47.85;;;22.45;;
24961;SDS011;12992;50.884;13.668;2023-02-11T13:50:57;41.60;;;20.97;;
24961;SDS011;12992;50.884;13.668;2023-02-11T13:53:24;44.58;;;22.20;;
24961;SDS011;12992;50.884;13.668;2023-02-11T13:58:54;44.67;;;21.75;;
24961;SDS011;12992;50.884;13.668;2023-02-11T14:01:40;44.83;;;21.13;;
24961;SDS011;12992;50.884;13.668;2023-02-11T14:08:10;40.47;;;21.13;;
24961;SDS011;12992;50.884;13.668;2023-02-11T14:13:35;43.40;;;20.10;;
24961;SDS011;12992;50.884;13.668;2023-02-11T14:21:11;39.83;;;20.52;;
24961;SDS011;12992;50.884;13.668;2023-02-11T14:23:40;38.08;;;20.00;;
24961;SDS011;12992;50.884;13.668;2023-02-11T14:28:40;41.75;;;20.40;;
24961;SDS011;12992;50.884;13.668;2023-02-11T14:31:11;37.13;;;19.90;;
24961;SDS011;12992;50.884;13.668;2023-02-11T14:33:57;38.30;;;20.85;;
24961;SDS011;12992;50.884;13.668;2023-02-11T14:36:44;38.40;;;20.42;;
24961;SDS011;12992;50.884;13.668;2023-02-11T14:39:40;41.72;;;21.10;;
24961;SDS011;12992;50.884;13.668;2023-02-11T14:42:21;40.13;;;20.23;;
24961;SDS011;12992;50.884;13.668;2023-02-11T14:44:50;41.85;;;21.10;;
24961;SDS011;12992;50.884;13.668;2023-02-11T14:47:23;45.53;;;20.98;;
24961;SDS011;12992;50.884;13.668;2023-02-11T14:49:54;39.47;;;19.95;;
24961;SDS011;12992;50.884;13.668;2023-02-11T14:52:27;41.65;;;19.77;;
24961;SDS011;12992;50.884;13.668;2023-02-11T14:55:00;41.13;;;20.00;;
24961;SDS011;12992;50.884;13.668;2023-02-11T14:57:36;36.83;;;20.00;;
24961;SDS011;12992;50.884;13.668;2023-02-11T15:00:04;39.03;;;19.65;;
24961;SDS011;12992;50.884;13.668;2023-02-11T15:02:38;36.03;;;19.88;;
24961;SDS011;12992;50.884;13.668;2023-02-11T15:07:47;38.15;;;19.05;;
24961;SDS011;12992;50.884;13.668;2023-02-11T15:10:16;37.47;;;19.95;;
24961;SDS011;12992;50.884;13.668;2023-02-11T15:12:45;36.33;;;19.30;;
24961;SDS011;12992;50.884;13.668;2023-02-11T15:15:14;35.55;;;19.80;;
24961;SDS011;12992;50.884;13.668;2023-02-11T15:17:40;36.05;;;19.73;;
24961;SDS011;12992;50.884;13.668;2023-02-11T15:20:12;38.80;;;19.80;;
24961;SDS011;12992;50.884;13.668;2023-02-11T15:22:43;40.08;;;20.05;;
24961;SDS011;12992;50.884;13.668;2023-02-11T15:25:15;40.30;;;19.98;;
24961;SDS011;12992;50.884;13.668;2023-02-11T15:27:44;39.85;;;19.52;;
24961;SDS011;12992;50.884;13.668;2023-02-11T15:32:45;37.30;;;19.33;;
24961;SDS011;12992;50.884;13.668;2023-02-11T15:35:10;35.95;;;19.55;;
24961;SDS011;12992;50.884;13.668;2023-02-11T15:37:35;40.05;;;19.75;;
24961;SDS011;12992;50.884;13.668;2023-02-11T15:40:13;41.50;;;19.25;;
24961;SDS011;12992;50.884;13.668;2023-02-11T15:42:51;38.10;;;19.77;;
24961;SDS011;12992;50.884;13.668;2023-02-11T15:45:28;35.97;;;18.25;;
24961;SDS011;12992;50.884;13.668;2023-02-11T15:50:49;35.38;;;19.15;;
24961;SDS011;12992;50.884;13.668;2023-02-11T15:53:27;39.22;;;19.48;;
24961;SDS011;12992;50.884;13.668;2023-02-11T15:56:02;39.63;;;19.80;;
24961;SDS011;12992;50.884;13.668;2023-02-11T15:58:38;39.38;;;19.58;;
24961;SDS011;12992;50.884;13.668;2023-02-11T16:01:04;39.05;;;20.15;;
24961;SDS011;12992;50.884;13.668;2023-02-11T16:03:31;39.33;;;20.30;;
24961;SDS011;12992;50.884;13.668;2023-02-11T16:08:56;41.92;;;19.38;;
24961;SDS011;12992;50.884;13.668;2023-02-11T16:11:34;38.05;;;20.15;;
24961;SDS011;12992;50.884;13.668;2023-02-11T16:14:22;38.58;;;20.48;;
24961;SDS011;12992;50.884;13.668;2023-02-11T16:17:03;42.63;;;21.48;;
24961;SDS011;12992;50.884;13.668;2023-02-11T16:19:33;42.28;;;20.75;;
24961;SDS011;12992;50.884;13.668;2023-02-11T16:22:00;36.72;;;20.00;;
24961;SDS011;12992;50.884;13.668;2023-02-11T16:24:32;39.58;;;20.45;;
24961;SDS011;12992;50.884;13.668;2023-02-11T16:27:04;37.33;;;19.42;;
24961;SDS011;12992;50.884;13.668;2023-02-11T16:29:33;36.50;;;19.52;;